sensor_id;sensor_type;location;lat;lon;timestamp;temperature;humidity
3564;DHT22;1796;52.388;13.096;2023-03-31T00:01:26;9.50;99.90
3564;DHT22;1796;52.388;13.096;2023-03-31T00:03:53;9.70;99.90
3564;DHT22;1796;52.388;13.096;2023-03-31T00:06:30;9.70;99.90
3564;DHT22;1796;52.388;13.096;2023-03-31T00:08:57;9.70;99.90
3564;DHT22;1796;52.388;13.096;2023-03-31T00:11:26;9.70;99.90
3564;DHT22;1796;52.388;13.096;2023-03-31T00:13:53;9.70;99.90
3564;DHT22;1796;52.388;13.096;2023-03-31T00:16:20;9.70;99.90
3564;DHT22;1796;52.388;13.096;2023-03-31T00:18:48;9.70;99.90
3564;DHT22;1796;52.388;13.096;2023-03-31T00:21:18;9.60;99.90
3564;DHT22;1796;52.388;13.096;2023-03-31T00:23:58;9.60;99.90
3564;DHT22;1796;52.388;13.096;2023-03-31T00:26:25;9.50;99.90
3564;DHT22;1796;52.388;13.096;2023-03-31T00:28:52;9.40;99.90
3564;DHT22;1796;52.388;13.096;2023-03-31T00:31:20;9.30;99.90
3564;DHT22;1796;52.388;13.096;2023-03-31T00:33:49;9.30;99.90
3564;DHT22;1796;52.388;13.096;2023-03-31T00:36:16;9.20;99.90
3564;DHT22;1796;52.388;13.096;2023-03-31T00:38:46;9.10;99.90
3564;DHT22;1796;52.388;13.096;2023-03-31T00:41:14;9.10;99.90
3564;DHT22;1796;52.388;13.096;2023-03-31T00:46:25;8.90;99.90
3564;DHT22;1796;52.388;13.096;2023-03-31T00:48:55;9.00;99.90
3564;DHT22;1796;52.388;13.096;2023-03-31T00:51:25;8.90;99.90
3564;DHT22;1796;52.388;13.096;2023-03-31T00:53:55;8.90;99.90
3564;DHT22;1796;52.388;13.096;2023-03-31T00:56:25;8.80;99.90
3564;DHT22;1796;52.388;13.096;2023-03-31T00:58:55;8.80;99.90
3564;DHT22;1796;52.388;13.096;2023-03-31T01:01:24;8.80;99.90
3564;DHT22;1796;52.388;13.096;2023-03-31T01:03:51;8.70;99.90
3564;DHT22;1796;52.388;13.096;2023-03-31T01:06:19;8.70;99.90
3564;DHT22;1796;52.388;13.096;2023-03-31T01:08:49;8.70;99.90
3564;DHT22;1796;52.388;13.096;2023-03-31T01:11:19;8.70;99.90
3564;DHT22;1796;52.388;13.096;2023-03-31T01:13:47;8.70;99.90
3564;DHT22;1796;52.388;13.096;2023-03-31T01:16:16;8.70;99.90
3564;DHT22;1796;52.388;13.096;2023-03-31T01:18:43;8.60;99.90
3564;DHT22;1796;52.388;13.096;2023-03-31T01:21:51;8.60;99.90
3564;DHT22;1796;52.388;13.096;2023-03-31T01:24:43;8.70;99.90
3564;DHT22;1796;52.388;13.096;2023-03-31T01:27:30;8.70;99.90
3564;DHT22;1796;52.388;13.096;2023-03-31T01:30:25;8.80;99.90
3564;DHT22;1796;52.388;13.096;2023-03-31T01:33:20;8.80;99.90
3564;DHT22;1796;52.388;13.096;2023-03-31T01:42:17;9.00;99.90
3564;DHT22;1796;52.388;13.096;2023-03-31T01:44:54;9.00;99.90
3564;DHT22;1796;52.388;13.096;2023-03-31T01:47:30;9.10;99.90
3564;DHT22;1796;52.388;13.096;2023-03-31T01:50:02;9.10;99.90
3564;DHT22;1796;52.388;13.096;2023-03-31T01:52:36;9.10;99.90
3564;DHT22;1796;52.388;13.096;2023-03-31T01:55:09;9.10;99.90
3564;DHT22;1796;52.388;13.096;2023-03-31T01:57:41;9.20;99.90
3564;DHT22;1796;52.388;13.096;2023-03-31T02:00:12;9.20;99.90
3564;DHT22;1796;52.388;13.096;2023-03-31T02:02:42;9.20;99.90
3564;DHT22;1796;52.388;13.096;2023-03-31T02:05:14;9.10;99.90
3564;DHT22;1796;52.388;13.096;2023-03-31T02:07:46;9.10;99.90
3564;DHT22;1796;52.388;13.096;2023-03-31T02:10:16;9.20;99.90
3564;DHT22;1796;52.388;13.096;2023-03-31T02:12:45;9.30;99.90
3564;DHT22;1796;52.388;13.096;2023-03-31T02:15:15;9.30;99.90
3564;DHT22;1796;52.388;13.096;2023-03-31T02:17:47;9.40;99.90
3564;DHT22;1796;52.388;13.096;2023-03-31T02:20:18;9.50;99.90
3564;DHT22;1796;52.388;13.096;2023-03-31T02:22:47;9.50;99.90
3564;DHT22;1796;52.388;13.096;2023-03-31T02:25:19;9.50;99.90
3564;DHT22;1796;52.388;13.096;2023-03-31T02:27:52;9.50;99.90
3564;DHT22;1796;52.388;13.096;2023-03-31T02:30:21;9.50;99.90
3564;DHT22;1796;52.388;13.096;2023-03-31T02:32:49;9.50;99.90
3564;DHT22;1796;52.388;13.096;2023-03-31T02:35:18;9.50;99.90
3564;DHT22;1796;52.388;13.096;2023-03-31T02:37:46;9.50;99.90
3564;DHT22;1796;52.388;13.096;2023-03-31T02:40:17;9.60;99.90
3564;DHT22;1796;52.388;13.096;2023-03-31T02:42:44;9.70;99.90
3564;DHT22;1796;52.388;13.096;2023-03-31T02:45:40;9.70;99.90
3564;DHT22;1796;52.388;13.096;2023-03-31T02:48:11;9.60;99.90
3564;DHT22;1796;52.388;13.096;2023-03-31T02:50:57;9.70;99.90
3564;DHT22;1796;52.388;13.096;2023-03-31T02:53:31;9.70;99.90
3564;DHT22;1796;52.388;13.096;2023-03-31T02:56:10;9.80;99.90
3564;DHT22;1796;52.388;13.096;2023-03-31T02:59:09;9.80;99.90
3564;DHT22;1796;52.388;13.096;2023-03-31T03:01:52;9.90;99.90
3564;DHT22;1796;52.388;13.096;2023-03-31T03:04:35;9.80;99.90
3564;DHT22;1796;52.388;13.096;2023-03-31T03:07:10;9.80;99.90
3564;DHT22;1796;52.388;13.096;2023-03-31T03:09:44;9.70;99.90
3564;DHT22;1796;52.388;13.096;2023-03-31T03:12:16;9.80;99.90
3564;DHT22;1796;52.388;13.096;2023-03-31T03:14:49;9.90;99.90
3564;DHT22;1796;52.388;13.096;2023-03-31T03:17:22;9.90;99.90
3564;DHT22;1796;52.388;13.096;2023-03-31T03:19:52;10.00;99.90
3564;DHT22;1796;52.388;13.096;2023-03-31T03:22:20;9.90;99.90
3564;DHT22;1796;52.388;13.096;2023-03-31T03:24:47;9.90;99.90
3564;DHT22;1796;52.388;13.096;2023-03-31T03:27:15;9.90;99.90
3564;DHT22;1796;52.388;13.096;2023-03-31T03:29:42;9.90;99.90
3564;DHT22;1796;52.388;13.096;2023-03-31T03:32:09;9.90;99.90
3564;DHT22;1796;52.388;13.096;2023-03-31T03:34:37;9.90;99.90
3564;DHT22;1796;52.388;13.096;2023-03-31T03:37:06;9.90;99.90
3564;DHT22;1796;52.388;13.096;2023-03-31T03:39:33;9.90;99.90
3564;DHT22;1796;52.388;13.096;2023-03-31T03:42:00;9.90;99.90
3564;DHT22;1796;52.388;13.096;2023-03-31T03:44:27;9.90;99.90
3564;DHT22;1796;52.388;13.096;2023-03-31T03:46:54;9.90;99.90
3564;DHT22;1796;52.388;13.096;2023-03-31T03:49:20;9.90;99.90
3564;DHT22;1796;52.388;13.096;2023-03-31T03:51:49;9.80;99.90
3564;DHT22;1796;52.388;13.096;2023-03-31T03:54:16;9.80;99.90
3564;DHT22;1796;52.388;13.096;2023-03-31T03:56:43;9.70;99.90
3564;DHT22;1796;52.388;13.096;2023-03-31T03:59:10;9.50;99.90
3564;DHT22;1796;52.388;13.096;2023-03-31T04:01:37;9.40;99.90
3564;DHT22;1796;52.388;13.096;2023-03-31T04:04:04;9.30;99.90
3564;DHT22;1796;52.388;13.096;2023-03-31T04:06:31;9.20;99.90
3564;DHT22;1796;52.388;13.096;2023-03-31T04:08:59;9.20;99.90
3564;DHT22;1796;52.388;13.096;2023-03-31T04:11:26;9.20;99.90
3564;DHT22;1796;52.388;13.096;2023-03-31T04:13:53;9.20;99.90
3564;DHT22;1796;52.388;13.096;2023-03-31T04:16:20;9.30;99.90
3564;DHT22;1796;52.388;13.096;2023-03-31T04:18:50;9.30;99.90
3564;DHT22;1796;52.388;13.096;2023-03-31T04:21:17;9.30;99.90
3564;DHT22;1796;52.388;13.096;2023-03-31T04:23:49;9.20;99.90
3564;DHT22;1796;52.388;13.096;2023-03-31T04:26:25;9.20;99.90
3564;DHT22;1796;52.388;13.096;2023-03-31T04:28:55;9.20;99.90
3564;DHT22;1796;52.388;13.096;2023-03-31T04:31:23;9.10;99.90
3564;DHT22;1796;52.388;13.096;2023-03-31T04:33:50;9.10;99.90
3564;DHT22;1796;52.388;13.096;2023-03-31T04:36:17;9.10;99.90
3564;DHT22;1796;52.388;13.096;2023-03-31T04:38:45;9.10;99.90
3564;DHT22;1796;52.388;13.096;2023-03-31T04:41:15;9.00;99.90
3564;DHT22;1796;52.388;13.096;2023-03-31T04:43:44;9.00;99.90
3564;DHT22;1796;52.388;13.096;2023-03-31T04:46:11;8.90;99.90
3564;DHT22;1796;52.388;13.096;2023-03-31T04:48:38;8.80;99.90
3564;DHT22;1796;52.388;13.096;2023-03-31T04:51:05;8.80;99.90
3564;DHT22;1796;52.388;13.096;2023-03-31T04:53:32;8.80;99.90
3564;DHT22;1796;52.388;13.096;2023-03-31T04:55:59;8.70;99.90
3564;DHT22;1796;52.388;13.096;2023-03-31T04:58:25;8.70;99.90
3564;DHT22;1796;52.388;13.096;2023-03-31T05:00:54;8.60;99.90
3564;DHT22;1796;52.388;13.096;2023-03-31T05:03:20;8.60;99.90
3564;DHT22;1796;52.388;13.096;2023-03-31T05:05:47;8.50;99.90
3564;DHT22;1796;52.388;13.096;2023-03-31T05:08:15;8.50;99.90
3564;DHT22;1796;52.388;13.096;2023-03-31T05:10:42;8.50;99.90
3564;DHT22;1796;52.388;13.096;2023-03-31T05:13:09;8.60;99.90
3564;DHT22;1796;52.388;13.096;2023-03-31T05:15:37;8.70;99.90
3564;DHT22;1796;52.388;13.096;2023-03-31T05:18:05;8.80;99.90
3564;DHT22;1796;52.388;13.096;2023-03-31T05:20:32;9.00;99.90
3564;DHT22;1796;52.388;13.096;2023-03-31T05:23:00;9.10;99.90
3564;DHT22;1796;52.388;13.096;2023-03-31T05:25:27;9.20;99.90
3564;DHT22;1796;52.388;13.096;2023-03-31T05:27:59;9.40;99.90
3564;DHT22;1796;52.388;13.096;2023-03-31T05:30:26;9.70;99.90
3564;DHT22;1796;52.388;13.096;2023-03-31T05:32:54;10.00;99.90
3564;DHT22;1796;52.388;13.096;2023-03-31T05:35:23;10.30;99.90
3564;DHT22;1796;52.388;13.096;2023-03-31T05:37:49;10.40;99.90
3564;DHT22;1796;52.388;13.096;2023-03-31T05:40:17;10.70;99.90
3564;DHT22;1796;52.388;13.096;2023-03-31T05:42:44;10.90;99.90
3564;DHT22;1796;52.388;13.096;2023-03-31T05:45:11;11.00;99.90
3564;DHT22;1796;52.388;13.096;2023-03-31T05:47:38;10.90;99.90
3564;DHT22;1796;52.388;13.096;2023-03-31T05:50:06;10.90;99.90
3564;DHT22;1796;52.388;13.096;2023-03-31T05:52:35;11.00;99.90
3564;DHT22;1796;52.388;13.096;2023-03-31T05:55:02;10.80;99.90
3564;DHT22;1796;52.388;13.096;2023-03-31T05:57:29;10.70;99.90
3564;DHT22;1796;52.388;13.096;2023-03-31T05:59:56;10.50;99.90
3564;DHT22;1796;52.388;13.096;2023-03-31T06:02:23;10.40;99.90
3564;DHT22;1796;52.388;13.096;2023-03-31T06:04:50;10.30;99.90
3564;DHT22;1796;52.388;13.096;2023-03-31T06:07:17;10.30;99.90
3564;DHT22;1796;52.388;13.096;2023-03-31T06:09:46;10.40;99.90
3564;DHT22;1796;52.388;13.096;2023-03-31T06:12:12;10.60;99.90
3564;DHT22;1796;52.388;13.096;2023-03-31T06:14:41;11.00;99.90
3564;DHT22;1796;52.388;13.096;2023-03-31T06:17:08;11.20;99.90
3564;DHT22;1796;52.388;13.096;2023-03-31T06:19:35;11.50;99.90
3564;DHT22;1796;52.388;13.096;2023-03-31T06:22:01;11.50;99.90
3564;DHT22;1796;52.388;13.096;2023-03-31T06:24:28;11.70;99.90
3564;DHT22;1796;52.388;13.096;2023-03-31T06:26:56;12.00;99.90
3564;DHT22;1796;52.388;13.096;2023-03-31T06:29:25;12.50;99.90
3564;DHT22;1796;52.388;13.096;2023-03-31T06:31:52;13.00;99.90
3564;DHT22;1796;52.388;13.096;2023-03-31T06:34:20;13.30;99.90
3564;DHT22;1796;52.388;13.096;2023-03-31T06:36:47;13.70;99.90
3564;DHT22;1796;52.388;13.096;2023-03-31T06:39:14;13.90;99.90
3564;DHT22;1796;52.388;13.096;2023-03-31T06:41:41;14.20;99.90
3564;DHT22;1796;52.388;13.096;2023-03-31T06:44:09;14.30;99.90
3564;DHT22;1796;52.388;13.096;2023-03-31T06:46:36;14.40;99.90
3564;DHT22;1796;52.388;13.096;2023-03-31T06:49:03;14.60;99.90
3564;DHT22;1796;52.388;13.096;2023-03-31T06:51:30;14.70;99.90
3564;DHT22;1796;52.388;13.096;2023-03-31T06:53:57;14.70;99.90
3564;DHT22;1796;52.388;13.096;2023-03-31T06:56:24;14.90;99.90
3564;DHT22;1796;52.388;13.096;2023-03-31T06:58:51;15.20;99.90
3564;DHT22;1796;52.388;13.096;2023-03-31T07:01:20;15.40;99.90
3564;DHT22;1796;52.388;13.096;2023-03-31T07:03:46;15.80;99.90
3564;DHT22;1796;52.388;13.096;2023-03-31T07:06:14;16.20;99.90
3564;DHT22;1796;52.388;13.096;2023-03-31T07:08:41;16.20;99.90
3564;DHT22;1796;52.388;13.096;2023-03-31T07:11:07;16.10;99.90
3564;DHT22;1796;52.388;13.096;2023-03-31T07:13:34;15.60;99.90
3564;DHT22;1796;52.388;13.096;2023-03-31T07:16:01;15.60;99.90
3564;DHT22;1796;52.388;13.096;2023-03-31T07:18:30;15.80;99.90
3564;DHT22;1796;52.388;13.096;2023-03-31T07:21:03;16.30;99.90
3564;DHT22;1796;52.388;13.096;2023-03-31T07:23:32;16.80;99.90
3564;DHT22;1796;52.388;13.096;2023-03-31T07:25:58;17.10;99.90
3564;DHT22;1796;52.388;13.096;2023-03-31T07:28:27;17.10;99.90
3564;DHT22;1796;52.388;13.096;2023-03-31T07:30:54;17.50;99.90
3564;DHT22;1796;52.388;13.096;2023-03-31T07:33:21;17.80;99.90
3564;DHT22;1796;52.388;13.096;2023-03-31T07:35:49;17.60;99.90
3564;DHT22;1796;52.388;13.096;2023-03-31T07:38:16;17.70;99.90
3564;DHT22;1796;52.388;13.096;2023-03-31T07:40:43;18.10;99.90
3564;DHT22;1796;52.388;13.096;2023-03-31T07:43:10;18.20;99.90
3564;DHT22;1796;52.388;13.096;2023-03-31T07:45:38;18.40;99.90
3564;DHT22;1796;52.388;13.096;2023-03-31T07:48:05;18.90;99.90
3564;DHT22;1796;52.388;13.096;2023-03-31T07:50:32;18.60;99.90
3564;DHT22;1796;52.388;13.096;2023-03-31T07:53:00;18.20;99.90
3564;DHT22;1796;52.388;13.096;2023-03-31T07:55:27;17.60;99.90
3564;DHT22;1796;52.388;13.096;2023-03-31T07:57:55;16.90;99.90
3564;DHT22;1796;52.388;13.096;2023-03-31T08:00:22;16.60;99.90
3564;DHT22;1796;52.388;13.096;2023-03-31T08:02:50;16.20;99.90
3564;DHT22;1796;52.388;13.096;2023-03-31T08:05:18;16.00;99.90
3564;DHT22;1796;52.388;13.096;2023-03-31T08:07:48;15.90;99.90
3564;DHT22;1796;52.388;13.096;2023-03-31T08:10:20;16.20;99.90
3564;DHT22;1796;52.388;13.096;2023-03-31T08:12:47;16.40;99.90
3564;DHT22;1796;52.388;13.096;2023-03-31T08:15:14;16.50;99.90
3564;DHT22;1796;52.388;13.096;2023-03-31T08:17:41;16.60;99.90
3564;DHT22;1796;52.388;13.096;2023-03-31T08:20:09;16.30;99.90
3564;DHT22;1796;52.388;13.096;2023-03-31T08:22:36;15.90;99.90
3564;DHT22;1796;52.388;13.096;2023-03-31T08:25:04;15.90;99.90
3564;DHT22;1796;52.388;13.096;2023-03-31T08:27:34;16.00;99.90
3564;DHT22;1796;52.388;13.096;2023-03-31T08:30:01;16.10;99.90
3564;DHT22;1796;52.388;13.096;2023-03-31T08:32:30;16.30;99.90
3564;DHT22;1796;52.388;13.096;2023-03-31T08:34:57;16.50;99.90
3564;DHT22;1796;52.388;13.096;2023-03-31T08:37:25;16.30;99.90
3564;DHT22;1796;52.388;13.096;2023-03-31T08:39:52;16.30;99.90
3564;DHT22;1796;52.388;13.096;2023-03-31T08:42:22;16.10;99.90
3564;DHT22;1796;52.388;13.096;2023-03-31T08:44:58;16.10;99.90
3564;DHT22;1796;52.388;13.096;2023-03-31T08:47:28;16.10;99.90
3564;DHT22;1796;52.388;13.096;2023-03-31T08:49:59;16.00;99.90
3564;DHT22;1796;52.388;13.096;2023-03-31T08:52:31;15.90;99.90
3564;DHT22;1796;52.388;13.096;2023-03-31T08:55:03;15.90;99.90
3564;DHT22;1796;52.388;13.096;2023-03-31T08:57:35;16.10;99.90
3564;DHT22;1796;52.388;13.096;2023-03-31T09:00:13;16.20;99.90
3564;DHT22;1796;52.388;13.096;2023-03-31T09:02:43;16.60;99.90
3564;DHT22;1796;52.388;13.096;2023-03-31T09:05:36;16.90;99.90
3564;DHT22;1796;52.388;13.096;2023-03-31T09:08:12;17.20;99.90
3564;DHT22;1796;52.388;13.096;2023-03-31T09:10:49;17.40;99.90
3564;DHT22;1796;52.388;13.096;2023-03-31T09:16:16;17.60;99.90
3564;DHT22;1796;52.388;13.096;2023-03-31T09:18:47;17.50;99.90
3564;DHT22;1796;52.388;13.096;2023-03-31T09:21:19;17.50;99.90
3564;DHT22;1796;52.388;13.096;2023-03-31T09:23:50;17.30;99.90
3564;DHT22;1796;52.388;13.096;2023-03-31T09:26:25;17.50;99.90
3564;DHT22;1796;52.388;13.096;2023-03-31T09:28:57;17.10;99.90
3564;DHT22;1796;52.388;13.096;2023-03-31T09:31:26;17.20;99.90
3564;DHT22;1796;52.388;13.096;2023-03-31T09:33:57;17.20;99.90
3564;DHT22;1796;52.388;13.096;2023-03-31T09:36:25;17.10;99.90
3564;DHT22;1796;52.388;13.096;2023-03-31T09:38:53;17.00;99.90
3564;DHT22;1796;52.388;13.096;2023-03-31T09:41:20;17.10;99.90
3564;DHT22;1796;52.388;13.096;2023-03-31T09:43:47;17.40;99.90
3564;DHT22;1796;52.388;13.096;2023-03-31T09:46:18;17.40;99.90
3564;DHT22;1796;52.388;13.096;2023-03-31T09:48:53;17.00;99.90
3564;DHT22;1796;52.388;13.096;2023-03-31T09:51:25;16.70;99.90
3564;DHT22;1796;52.388;13.096;2023-03-31T09:53:59;16.30;99.90
3564;DHT22;1796;52.388;13.096;2023-03-31T09:56:47;16.10;99.90
3564;DHT22;1796;52.388;13.096;2023-03-31T09:59:16;15.90;99.90
3564;DHT22;1796;52.388;13.096;2023-03-31T10:01:45;15.50;99.90
3564;DHT22;1796;52.388;13.096;2023-03-31T10:04:22;15.30;99.90
3564;DHT22;1796;52.388;13.096;2023-03-31T10:06:50;15.30;99.90
3564;DHT22;1796;52.388;13.096;2023-03-31T10:09:19;15.30;99.90
3564;DHT22;1796;52.388;13.096;2023-03-31T10:11:53;15.30;99.90
3564;DHT22;1796;52.388;13.096;2023-03-31T10:14:24;15.10;99.90
3564;DHT22;1796;52.388;13.096;2023-03-31T10:16:53;15.00;99.90
3564;DHT22;1796;52.388;13.096;2023-03-31T10:19:24;14.70;99.90
3564;DHT22;1796;52.388;13.096;2023-03-31T10:21:56;14.40;99.90
3564;DHT22;1796;52.388;13.096;2023-03-31T10:24:23;14.10;99.90
3564;DHT22;1796;52.388;13.096;2023-03-31T10:26:53;13.90;99.90
3564;DHT22;1796;52.388;13.096;2023-03-31T10:29:23;13.80;99.90
3564;DHT22;1796;52.388;13.096;2023-03-31T10:31:52;13.70;99.90
3564;DHT22;1796;52.388;13.096;2023-03-31T10:34:19;13.50;99.90
3564;DHT22;1796;52.388;13.096;2023-03-31T10:36:50;13.30;99.90
3564;DHT22;1796;52.388;13.096;2023-03-31T10:39:18;13.30;99.90
3564;DHT22;1796;52.388;13.096;2023-03-31T10:41:49;13.40;99.90
3564;DHT22;1796;52.388;13.096;2023-03-31T10:44:31;13.60;99.90
3564;DHT22;1796;52.388;13.096;2023-03-31T10:47:03;13.80;99.90
3564;DHT22;1796;52.388;13.096;2023-03-31T10:49:36;14.10;99.90
3564;DHT22;1796;52.388;13.096;2023-03-31T10:52:15;14.40;99.90
3564;DHT22;1796;52.388;13.096;2023-03-31T10:54:51;14.60;99.90
3564;DHT22;1796;52.388;13.096;2023-03-31T10:57:25;14.90;99.90
3564;DHT22;1796;52.388;13.096;2023-03-31T11:00:11;15.30;99.90
3564;DHT22;1796;52.388;13.096;2023-03-31T11:03:00;15.40;99.90
3564;DHT22;1796;52.388;13.096;2023-03-31T11:05:32;15.70;99.90
3564;DHT22;1796;52.388;13.096;2023-03-31T11:08:14;16.00;99.90
3564;DHT22;1796;52.388;13.096;2023-03-31T11:10:57;15.70;99.90
3564;DHT22;1796;52.388;13.096;2023-03-31T11:13:32;15.60;99.90
3564;DHT22;1796;52.388;13.096;2023-03-31T11:16:07;15.30;99.90
3564;DHT22;1796;52.388;13.096;2023-03-31T11:18:49;15.10;99.90
3564;DHT22;1796;52.388;13.096;2023-03-31T11:21:22;15.00;99.90
3564;DHT22;1796;52.388;13.096;2023-03-31T11:24:00;14.40;99.90
3564;DHT22;1796;52.388;13.096;2023-03-31T11:26:38;13.70;99.90
3564;DHT22;1796;52.388;13.096;2023-03-31T11:29:17;13.40;99.90
3564;DHT22;1796;52.388;13.096;2023-03-31T11:31:54;13.30;99.90
3564;DHT22;1796;52.388;13.096;2023-03-31T11:37:41;13.40;99.90
3564;DHT22;1796;52.388;13.096;2023-03-31T11:43:10;14.20;99.90
3564;DHT22;1796;52.388;13.096;2023-03-31T11:45:39;14.40;99.90
3564;DHT22;1796;52.388;13.096;2023-03-31T11:48:15;14.30;99.90
3564;DHT22;1796;52.388;13.096;2023-03-31T11:50:44;14.30;99.90
3564;DHT22;1796;52.388;13.096;2023-03-31T11:53:15;14.30;99.90
3564;DHT22;1796;52.388;13.096;2023-03-31T11:55:47;14.50;99.90
3564;DHT22;1796;52.388;13.096;2023-03-31T11:58:16;14.90;99.90
3564;DHT22;1796;52.388;13.096;2023-03-31T12:00:49;14.90;99.90
3564;DHT22;1796;52.388;13.096;2023-03-31T12:03:21;15.10;99.90
3564;DHT22;1796;52.388;13.096;2023-03-31T12:05:52;15.30;99.90
3564;DHT22;1796;52.388;13.096;2023-03-31T12:08:25;15.30;99.90
3564;DHT22;1796;52.388;13.096;2023-03-31T12:11:00;15.10;99.90
3564;DHT22;1796;52.388;13.096;2023-03-31T12:13:39;15.00;99.90
3564;DHT22;1796;52.388;13.096;2023-03-31T12:16:13;14.70;99.90
3564;DHT22;1796;52.388;13.096;2023-03-31T12:18:44;14.40;99.90
3564;DHT22;1796;52.388;13.096;2023-03-31T12:21:17;14.30;99.90
3564;DHT22;1796;52.388;13.096;2023-03-31T12:23:45;14.10;99.90
3564;DHT22;1796;52.388;13.096;2023-03-31T12:26:27;13.80;99.90
3564;DHT22;1796;52.388;13.096;2023-03-31T12:28:59;13.30;99.90
3564;DHT22;1796;52.388;13.096;2023-03-31T12:31:30;12.90;99.90
3564;DHT22;1796;52.388;13.096;2023-03-31T12:34:00;12.60;99.90
3564;DHT22;1796;52.388;13.096;2023-03-31T12:36:40;12.50;99.90
3564;DHT22;1796;52.388;13.096;2023-03-31T12:39:23;12.40;99.90
3564;DHT22;1796;52.388;13.096;2023-03-31T12:42:07;12.30;99.90
3564;DHT22;1796;52.388;13.096;2023-03-31T12:44:44;12.10;99.90
3564;DHT22;1796;52.388;13.096;2023-03-31T12:47:30;12.10;99.90
3564;DHT22;1796;52.388;13.096;2023-03-31T12:50:12;12.10;99.90
3564;DHT22;1796;52.388;13.096;2023-03-31T12:52:48;12.10;99.90
3564;DHT22;1796;52.388;13.096;2023-03-31T12:55:30;12.00;99.90
3564;DHT22;1796;52.388;13.096;2023-03-31T13:01:06;11.70;99.90
3564;DHT22;1796;52.388;13.096;2023-03-31T13:03:41;11.80;99.90
3564;DHT22;1796;52.388;13.096;2023-03-31T13:06:10;11.70;99.90
3564;DHT22;1796;52.388;13.096;2023-03-31T13:08:55;11.70;99.90
3564;DHT22;1796;52.388;13.096;2023-03-31T13:11:35;11.80;99.90
3564;DHT22;1796;52.388;13.096;2023-03-31T13:14:04;11.80;99.90
3564;DHT22;1796;52.388;13.096;2023-03-31T13:16:33;11.80;99.90
3564;DHT22;1796;52.388;13.096;2023-03-31T13:19:01;11.70;99.90
3564;DHT22;1796;52.388;13.096;2023-03-31T13:21:28;11.60;99.90
3564;DHT22;1796;52.388;13.096;2023-03-31T13:23:59;11.50;99.90
3564;DHT22;1796;52.388;13.096;2023-03-31T13:26:41;11.50;99.90
3564;DHT22;1796;52.388;13.096;2023-03-31T13:29:20;11.40;99.90
3564;DHT22;1796;52.388;13.096;2023-03-31T13:32:15;11.30;99.90
3564;DHT22;1796;52.388;13.096;2023-03-31T13:34:45;11.40;99.90
3564;DHT22;1796;52.388;13.096;2023-03-31T13:37:22;11.40;99.90
3564;DHT22;1796;52.388;13.096;2023-03-31T13:40:07;11.40;99.90
3564;DHT22;1796;52.388;13.096;2023-03-31T13:43:00;11.30;99.90
3564;DHT22;1796;52.388;13.096;2023-03-31T13:45:44;11.30;99.90
3564;DHT22;1796;52.388;13.096;2023-03-31T13:48:22;11.20;99.90
3564;DHT22;1796;52.388;13.096;2023-03-31T13:54:15;11.40;99.90
3564;DHT22;1796;52.388;13.096;2023-03-31T13:57:08;11.50;99.90
3564;DHT22;1796;52.388;13.096;2023-03-31T14:02:58;11.30;99.90
3564;DHT22;1796;52.388;13.096;2023-03-31T14:05:33;11.30;99.90
3564;DHT22;1796;52.388;13.096;2023-03-31T14:08:04;11.30;99.90
3564;DHT22;1796;52.388;13.096;2023-03-31T14:10:33;11.30;99.90
3564;DHT22;1796;52.388;13.096;2023-03-31T14:13:05;11.20;99.90
3564;DHT22;1796;52.388;13.096;2023-03-31T14:15:33;11.30;99.90
3564;DHT22;1796;52.388;13.096;2023-03-31T14:18:02;11.30;99.90
3564;DHT22;1796;52.388;13.096;2023-03-31T14:20:36;11.30;99.90
3564;DHT22;1796;52.388;13.096;2023-03-31T14:23:14;11.30;99.90
3564;DHT22;1796;52.388;13.096;2023-03-31T14:25:48;11.30;99.90
3564;DHT22;1796;52.388;13.096;2023-03-31T14:28:38;11.20;99.90
3564;DHT22;1796;52.388;13.096;2023-03-31T14:31:15;11.20;99.90
3564;DHT22;1796;52.388;13.096;2023-03-31T14:33:53;11.10;99.90
3564;DHT22;1796;52.388;13.096;2023-03-31T14:36:31;11.20;99.90
3564;DHT22;1796;52.388;13.096;2023-03-31T14:39:05;11.20;99.90
3564;DHT22;1796;52.388;13.096;2023-03-31T14:41:32;11.20;99.90
3564;DHT22;1796;52.388;13.096;2023-03-31T14:44:04;11.20;99.90
3564;DHT22;1796;52.388;13.096;2023-03-31T14:46:36;11.20;99.90
3564;DHT22;1796;52.388;13.096;2023-03-31T14:49:06;11.20;99.90
3564;DHT22;1796;52.388;13.096;2023-03-31T14:51:43;11.10;99.90
3564;DHT22;1796;52.388;13.096;2023-03-31T14:54:15;11.10;99.90
3564;DHT22;1796;52.388;13.096;2023-03-31T14:56:42;11.00;99.90
3564;DHT22;1796;52.388;13.096;2023-03-31T14:59:13;11.10;99.90
3564;DHT22;1796;52.388;13.096;2023-03-31T15:01:45;11.00;99.90
3564;DHT22;1796;52.388;13.096;2023-03-31T15:04:15;11.00;99.90
3564;DHT22;1796;52.388;13.096;2023-03-31T15:06:45;10.90;99.90
3564;DHT22;1796;52.388;13.096;2023-03-31T15:09:17;10.90;99.90
3564;DHT22;1796;52.388;13.096;2023-03-31T15:11:46;10.80;99.90
3564;DHT22;1796;52.388;13.096;2023-03-31T15:14:13;10.80;99.90
3564;DHT22;1796;52.388;13.096;2023-03-31T15:16:41;10.80;99.90
3564;DHT22;1796;52.388;13.096;2023-03-31T15:19:14;10.80;99.90
3564;DHT22;1796;52.388;13.096;2023-03-31T15:21:42;10.80;99.90
3564;DHT22;1796;52.388;13.096;2023-03-31T15:24:12;10.90;99.90
3564;DHT22;1796;52.388;13.096;2023-03-31T15:26:42;10.90;99.90
3564;DHT22;1796;52.388;13.096;2023-03-31T15:29:16;11.00;99.90
3564;DHT22;1796;52.388;13.096;2023-03-31T15:31:44;10.90;99.90
3564;DHT22;1796;52.388;13.096;2023-03-31T15:34:14;11.00;99.90
3564;DHT22;1796;52.388;13.096;2023-03-31T15:36:43;11.00;99.90
3564;DHT22;1796;52.388;13.096;2023-03-31T15:39:12;10.90;99.90
3564;DHT22;1796;52.388;13.096;2023-03-31T15:41:40;10.90;99.90
3564;DHT22;1796;52.388;13.096;2023-03-31T15:44:27;11.00;99.90
3564;DHT22;1796;52.388;13.096;2023-03-31T15:46:58;11.00;99.90
3564;DHT22;1796;52.388;13.096;2023-03-31T15:49:26;11.10;99.90
3564;DHT22;1796;52.388;13.096;2023-03-31T15:51:54;11.10;99.90
3564;DHT22;1796;52.388;13.096;2023-03-31T15:54:34;11.10;99.90
3564;DHT22;1796;52.388;13.096;2023-03-31T15:57:03;11.10;99.90
3564;DHT22;1796;52.388;13.096;2023-03-31T15:59:42;11.20;99.90
3564;DHT22;1796;52.388;13.096;2023-03-31T16:02:11;11.30;99.90
3564;DHT22;1796;52.388;13.096;2023-03-31T16:04:39;11.30;99.90
3564;DHT22;1796;52.388;13.096;2023-03-31T16:07:12;11.20;99.90
3564;DHT22;1796;52.388;13.096;2023-03-31T16:09:44;11.10;99.90
3564;DHT22;1796;52.388;13.096;2023-03-31T16:12:18;11.10;99.90
3564;DHT22;1796;52.388;13.096;2023-03-31T16:14:49;11.10;99.90
3564;DHT22;1796;52.388;13.096;2023-03-31T16:17:23;11.10;99.90
3564;DHT22;1796;52.388;13.096;2023-03-31T16:19:54;11.00;99.90
3564;DHT22;1796;52.388;13.096;2023-03-31T16:22:26;11.00;99.90
3564;DHT22;1796;52.388;13.096;2023-03-31T16:24:58;11.00;99.90
3564;DHT22;1796;52.388;13.096;2023-03-31T16:27:25;11.00;99.90
3564;DHT22;1796;52.388;13.096;2023-03-31T16:30:05;10.90;99.90
3564;DHT22;1796;52.388;13.096;2023-03-31T16:32:32;10.90;99.90
3564;DHT22;1796;52.388;13.096;2023-03-31T16:35:01;10.90;99.90
3564;DHT22;1796;52.388;13.096;2023-03-31T16:37:28;10.90;99.90
3564;DHT22;1796;52.388;13.096;2023-03-31T16:39:56;10.90;99.90
3564;DHT22;1796;52.388;13.096;2023-03-31T16:42:24;10.90;99.90
3564;DHT22;1796;52.388;13.096;2023-03-31T16:44:51;10.80;99.90
3564;DHT22;1796;52.388;13.096;2023-03-31T16:47:18;10.70;99.90